Latest Weather Observations for Cerberus

IDV60801

Issued at 4:52 pm EDT Thursday 28 January 2021 (issued every 10 minutes, with the page automatically refreshed every 10 minutes)

About weather observations | Map of weather stations | Latest weather observations for VIC | Other Formats
Station Details ID: 086361 Name: CERBERUS Lat: -38.36 Lon: 145.18 Height: 12.69 m
Data from the previous 72 hours. | See also: Recent months at Cerberus
Date/Time
EDT
Temp
°C
App
Temp
°C
Dew
Point
°C
Rel
Hum
%
Delta-T
°C
Wind Press
QNH
hPa
Press
MSL
hPa
Rain since
9am
mm
Dir  Spd
km/h
Gust
km/h
Spd
kts
Gust
kts
28/04:30pm 22.3 17.2 12.0 52 5.8 ENE 30 54 16 29 1016.3 1016.2 0.0
28/04:12pm 22.0 17.1 11.4 51 5.9 ENE 28 52 15 28 1016.4 1016.3 0.0
28/04:00pm 22.3 18.2 11.4 50 6.1 ENE 24 37 13 20 1016.8 1016.7 0.0
28/03:30pm 22.5 17.9 10.9 48 6.4 E 26 41 14 22 1016.8 1016.7 0.0
28/03:00pm 22.8 18.2 10.9 47 6.6 E 26 39 14 21 1017.2 1017.1 0.0
28/02:30pm 22.8 17.9 11.2 48 6.5 ENE 28 43 15 23 1017.3 1017.2 0.0
28/02:00pm 22.8 19.1 11.5 49 6.3 ENE 22 32 12 17 1017.5 1017.4 0.0
28/01:30pm 22.9 18.3 11.0 47 6.6 ENE 26 43 14 23 1017.8 1017.7 0.0
28/01:00pm 23.2 18.5 11.9 49 6.4 ENE 28 48 15 26 1017.9 1017.8 0.0
28/12:43pm 23.0 18.3 12.0 50 6.2 ENE 28 46 15 25 1018.0 1017.9 0.0
28/12:30pm 23.5 20.6 12.8 51 6.1 ENE 20 39 11 21 1018.1 1018.0 0.0
28/12:00pm 23.0 19.3 12.6 52 5.9 ENE 24 43 13 23 1018.4 1018.3 0.0
28/11:30am 23.5 19.7 12.5 50 6.3 E 24 41 13 22 1018.5 1018.4 0.0
28/11:00am 22.5 18.3 12.4 52 5.7 E 26 43 14 23 1018.6 1018.5 0.0
28/10:30am 22.1 18.5 12.9 56 5.3 E 24 41 13 22 1018.7 1018.6 0.0
28/10:00am 21.4 18.8 13.1 59 4.7 E 19 35 10 19 1019.0 1018.9 0.0
28/09:30am 20.6 17.8 13.3 63 4.2 E 20 33 11 18 1019.1 1019.0 0.0
28/09:00am 19.9 17.1 13.1 65 3.9 E 20 35 11 19 1019.0 1018.9 0.0
28/08:30am 19.1 16.3 13.1 68 3.4 E 20 35 11 19 1019.1 1019.0 0.0
28/08:00am 18.6 15.9 13.0 70 3.1 E 19 32 10 17 1018.9 1018.8 0.0
28/07:30am 18.0 15.3 12.9 72 2.9 E 19 30 10 16 1018.7 1018.6 0.0
28/07:00am 17.6 15.2 12.5 72 2.8 E 17 26 9 14 1018.4 1018.3 0.0
28/06:30am 17.4 14.5 12.3 72 2.8 E 19 26 10 14 1018.1 1018.0 0.0
28/06:00am 17.3 14.6 11.8 70 3.0 E 17 33 9 18 1017.9 1017.8 0.0
28/05:30am 17.2 14.1 11.7 70 3.0 E 19 32 10 17 1017.6 1017.5 0.0
28/05:00am 17.0 13.7 11.7 71 2.9 E 20 35 11 19 1017.3 1017.2 0.0
28/04:30am 17.1 13.1 11.8 71 2.9 E 24 41 13 22 1017.4 1017.3 0.0
28/04:00am 17.2 12.9 11.9 71 2.9 E 26 39 14 21 1017.3 1017.2 0.0
28/03:30am 17.3 13.3 11.8 70 3.0 E 24 41 13 22 1017.2 1017.1 0.0
28/03:00am 17.4 12.6 11.7 69 3.1 E 28 48 15 26 1017.5 1017.4 0.0
28/02:32am 17.5 12.3 11.5 68 3.3 E 30 54 16 29 1017.3 1017.2 0.0
28/02:30am 17.5 12.7 11.5 68 3.3 E 28 43 15 23 1017.3 1017.2 0.0
28/02:00am 17.7 13.2 11.5 67 3.4 E 26 46 14 25 1017.8 1017.7 0.0
28/01:30am 17.7 12.5 11.7 68 3.3 E 30 59 16 32 1017.1 1017.0 0.0
28/01:00am 17.8 13.0 11.6 67 3.4 E 28 46 15 25 1017.2 1017.1 0.0
28/12:46am 17.9 13.1 11.7 67 3.4 E 28 50 15 27 1017.4 1017.3 0.0
28/12:30am 18.0 14.0 11.8 67 3.4 E 24 52 13 28 1017.5 1017.4 0.0
28/12:00am 17.6 14.6 12.1 70 3.0 E 19 28 10 15 1017.6 1017.5 0.0
 
Date/Time
EDT
Temp
°C
App
Temp
°C
Dew
Point
°C
Rel
Hum
%
Delta-T
°C
Wind Press
QNH
hPa
Press
MSL
hPa
Rain since
9am
mm
Dir  Spd
km/h
Gust
km/h
Spd
kts
Gust
kts
27/11:30pm 17.8 14.9 12.3 70 3.0 ESE 19 32 10 17 1018.0 1017.9 0.0
27/11:00pm 17.9 15.0 12.4 70 3.0 ESE 19 33 10 18 1017.8 1017.7 0.0
27/10:30pm 18.1 14.6 12.3 69 3.2 ESE 22 33 12 18 1017.9 1017.8 0.0
27/10:00pm 18.3 14.5 12.5 69 3.2 ESE 24 39 13 21 1017.4 1017.3 0.0
27/09:30pm 18.8 15.3 12.3 66 3.6 ESE 22 39 12 21 1017.1 1017.0 0.0
27/09:00pm 19.3 16.3 12.6 65 3.8 ESE 20 35 11 19 1016.1 1016.0 0.0
27/08:30pm 20.3 15.7 11.0 55 5.1 E 26 43 14 23 1015.8 1015.7 0.0
27/08:00pm 20.9 17.4 12.1 57 4.9 E 22 37 12 20 1015.6 1015.5 0.0
27/07:30pm 21.2 17.1 12.6 58 4.9 ESE 26 46 14 25 1015.5 1015.4 0.0
27/07:00pm 21.2 17.0 13.4 61 4.5 SE 28 50 15 27 1014.8 1014.7 0.0
27/06:30pm 22.1 17.9 13.5 58 5.0 ESE 28 48 15 26 1014.4 1014.3 0.0
27/06:26pm 22.2 17.5 13.3 57 5.1 ESE 30 48 16 26 1014.3 1014.2 0.0
27/06:00pm 22.8 18.6 13.6 56 5.3 SE 28 44 15 24 1014.1 1014.0 0.0
27/05:30pm 23.5 20.1 13.7 54 5.7 ESE 24 41 13 22 1014.0 1013.9 0.0
27/05:00pm 23.8 21.0 13.1 51 6.2 ESE 20 33 11 18 1014.4 1014.3 0.0
27/04:30pm 24.5 21.7 10.0 40 8.0 SE 15 28 8 15 1014.4 1014.3 0.0
27/04:00pm 23.2 21.6 12.8 52 6.0 SSE 13 22 7 12 1015.0 1014.9 0.0
27/03:30pm 21.9 19.5 12.7 56 5.2 SSE 17 24 9 13 1015.5 1015.4 0.0
27/03:00pm 21.1 18.2 12.3 57 4.9 S 19 30 10 16 1015.9 1015.8 0.0
27/02:30pm 20.9 18.3 12.1 57 4.9 SSE 17 28 9 15 1016.1 1016.0 0.0
27/02:00pm 20.4 17.0 11.1 55 5.1 SSE 20 32 11 17 1016.2 1016.1 0.0
27/01:30pm 19.8 16.8 10.8 56 4.9 S 17 30 9 16 1016.3 1016.2 0.0
27/01:00pm 20.0 17.6 9.9 52 5.4 SSE 13 24 7 13 1016.6 1016.5 0.0
27/12:30pm 19.5 16.5 9.1 51 5.5 SE 15 26 8 14 1016.7 1016.6 0.0
27/12:00pm 19.0 16.2 8.4 50 5.5 SSE 13 28 7 15 1017.2 1017.1 0.0
27/11:30am 19.2 16.5 9.1 52 5.3 SE 13 26 7 14 1017.2 1017.1 0.0
27/11:00am 18.4 15.6 8.7 53 5.0 ESE 13 20 7 11 1017.0 1016.9 0.0
27/10:30am 17.5 14.5 7.5 52 5.0 SE 13 24 7 13 1017.0 1016.9 0.0
27/10:00am 16.2 13.1 7.2 55 4.5 SSE 13 24 7 13 1016.8 1016.7 0.0
27/09:30am 16.2 13.4 6.9 54 4.6 SE 11 17 6 9 1016.8 1016.7 0.0
27/09:00am 15.6 12.8 7.1 57 4.2 SSE 11 24 6 13 1016.7 1016.6 0.6
27/08:30am 15.3 11.7 6.8 57 4.2 SSE 15 26 8 14 1016.5 1016.4 0.6
27/08:00am 14.9 11.6 6.5 57 4.1 SSE 13 24 7 13 1016.3 1016.2 0.6
27/07:30am 14.5 11.9 6.1 57 4.0 SSE 9 19 5 10 1016.1 1016.0 0.6
27/07:00am 14.3 11.8 6.6 60 3.7 SSE 9 17 5 9 1015.7 1015.6 0.6
27/06:30am 14.3 10.7 6.6 60 3.7 S 15 24 8 13 1015.2 1015.1 0.6
27/06:00am 14.1 11.2 6.5 60 3.7 SSE 11 19 6 10 1014.8 1014.7 0.6
27/05:30am 14.2 10.9 6.3 59 3.8 SSE 13 26 7 14 1014.4 1014.3 0.6
27/05:00am 14.2 10.9 6.3 59 3.8 SSE 13 22 7 12 1013.9 1013.8 0.6
27/04:30am 14.0 10.6 5.9 58 3.8 SSE 13 22 7 12 1013.8 1013.7 0.6
27/04:00am 13.9 10.9 6.0 59 3.8 S 11 19 6 10 1013.8 1013.7 0.6
27/03:30am 14.3 11.0 6.6 60 3.7 S 13 26 7 14 1013.8 1013.7 0.6
27/03:00am 14.1 10.8 6.5 60 3.7 S 13 20 7 11 1013.8 1013.7 0.6
27/02:30am 14.3 9.9 6.4 59 3.8 S 19 30 10 16 1013.3 1013.3 0.6
27/02:00am 13.9 9.4 6.0 59 3.8 S 19 32 10 17 1013.2 1013.2 0.6
27/01:30am 13.8 9.6 5.9 59 3.7 S 17 24 9 13 1013.2 1013.2 0.6
27/01:00am 13.9 9.9 6.5 61 3.6 S 17 28 9 15 1013.1 1013.1 0.6
27/12:30am 13.8 10.1 6.4 61 3.5 S 15 30 8 16 1013.0 1013.0 0.6
27/12:00am 13.8 9.2 6.4 61 3.5 S 20 32 11 17 1012.8 1012.8 0.6
 
Date/Time
EDT
Temp
°C
App
Temp
°C
Dew
Point
°C
Rel
Hum
%
Delta-T
°C
Wind Press
QNH
hPa
Press
MSL
hPa
Rain since
9am
mm
Dir  Spd
km/h
Gust
km/h
Spd
kts
Gust
kts
26/11:30pm 14.3 9.8 6.9 61 3.6 S 20 32 11 17 1012.6 1012.6 0.6
26/11:00pm 14.8 10.7 7.8 63 3.5 S 19 33 10 18 1012.5 1012.5 0.6
26/10:30pm 15.0 11.3 8.0 63 3.5 S 17 28 9 15 1012.3 1012.3 0.6
26/10:00pm 15.0 11.8 8.5 65 3.3 S 15 26 8 14 1011.9 1011.9 0.6
26/09:30pm 15.3 11.7 8.3 63 3.5 S 17 24 9 13 1011.4 1011.4 0.6
26/09:00pm 15.5 11.5 9.2 66 3.2 S 20 30 11 16 1010.9 1010.9 0.6
26/08:30pm 15.8 12.2 9.7 67 3.2 SSW 19 30 10 16 1010.5 1010.5 0.6
26/08:00pm 16.2 13.3 9.8 66 3.4 SSW 15 22 8 12 1009.8 1009.8 0.6
26/07:30pm 16.4 13.0 10.5 68 3.1 S 19 32 10 17 1009.1 1009.1 0.6
26/07:00pm 16.8 13.3 10.9 68 3.2 S 20 32 11 17 1008.5 1008.5 0.6
26/06:30pm 17.1 13.4 11.6 70 3.0 S 22 33 12 18 1007.9 1007.9 0.6
26/06:00pm 18.7 15.0 12.7 68 3.4 S 24 35 13 19 1007.4 1007.4 0.6
26/05:30pm 19.2 15.1 11.5 61 4.2 SSW 24 37 13 20 1007.0 1007.0 0.6
26/05:00pm 19.2 14.9 12.2 64 3.9 SW 26 37 14 20 1006.7 1006.7 0.6
26/04:30pm 19.7 15.8 12.2 62 4.2 SW 24 35 13 19 1006.4 1006.4 0.6
26/04:00pm 20.0 16.5 12.3 61 4.3 SSW 22 35 12 19 1006.4 1006.4 0.6
26/03:30pm 19.0 15.2 11.3 61 4.2 SSW 22 32 12 17 1006.1 1006.1 0.6
26/03:00pm 19.4 16.2 11.9 62 4.2 SSW 20 33 11 18 1005.9 1005.9 0.6
26/02:30pm 18.8 16.6 13.2 70 3.2 SSW 17 28 9 15 1005.7 1005.7 0.6
26/02:00pm 17.0 13.5 13.3 79 2.1 SSW 24 35 13 19 1005.7 1005.7 0.6
26/01:30pm 18.9 16.5 13.7 72 3.0 SSW 19 28 10 15 1005.1 1005.1 0.6
26/01:00pm 18.2 16.5 13.5 74 2.7 SSW 15 26 8 14 1005.0 1005.0 0.6
26/12:30pm 18.8 17.0 15.5 81 1.9 SSW 19 30 10 16 1004.5 1004.5 0.6
26/12:00pm 17.2 14.6 14.8 86 1.4 SW 22 30 12 16 1004.3 1004.3 0.6
26/11:30am 16.6 14.9 14.8 89 1.0 SSW 17 28 9 15 1003.9 1003.9 0.6
26/11:00am 16.7 14.8 15.2 91 0.9 SSW 19 32 10 17 1003.6 1003.6 0.4
26/10:30am 17.3 16.0 15.8 91 0.9 S 17 26 9 14 1003.2 1003.2 0.4
26/10:00am 17.2 16.7 15.9 92 0.8 SW 13 20 7 11 1002.8 1002.8 0.2
26/09:30am 17.3 16.8 16.0 92 0.8 SSW 13 20 7 11 1002.4 1002.4 0.2
26/09:00am 17.2 16.3 15.9 92 0.8 SW 15 28 8 15 1002.2 1002.2 6.0
26/08:30am 17.2 16.3 15.9 92 0.8 SSW 15 30 8 16 1001.7 1001.7 5.8
26/08:00am 17.2 16.3 15.9 92 0.8 SSW 15 24 8 13 1001.0 1001.0 5.6
26/07:30am 17.3 17.2 16.0 92 0.8 SSW 11 19 6 10 1000.4 1000.4 5.4
26/07:00am 17.4 17.3 15.9 91 0.9 SSW 11 19 6 10 999.8 999.8 3.6
26/06:30am 17.4 16.5 15.9 91 0.9 S 15 26 8 14 998.8 998.8 3.6
26/06:00am 17.6 16.4 16.1 91 0.9 S 17 26 9 14 998.4 998.4 3.4
26/05:30am 17.9 17.1 16.2 90 1.0 S 15 22 8 12 997.9 997.9 3.4
26/05:00am 17.9 17.1 16.1 89 1.1 SSW 15 24 8 13 997.5 997.5 3.2
26/04:30am 18.6 17.9 16.4 87 1.3 SSW 15 24 8 13 997.4 997.4 0.0
26/04:00am 19.4 19.5 16.6 84 1.7 SSW 11 19 6 10 997.1 997.1 0.0
26/03:30am 19.4 21.1 16.2 82 1.9 NNE 2 4 1 2 997.1 997.1 0.0
26/03:00am 19.0 21.0 15.9 82 1.9 CALM 0 4 0 2 997.3 997.3 0.0
26/02:30am 19.2 20.9 16.1 82 1.8 N 2 6 1 3 997.5 997.5 0.0
26/02:00am 19.4 21.1 16.2 82 1.9 NW 2 6 1 3 998.1 998.1 0.0
26/01:30am 19.5 20.6 16.5 83 1.8 N 6 11 3 6 999.0 999.0 0.0
26/01:00am 19.6 20.7 16.6 83 1.8 N 6 9 3 5 998.9 998.9 0.0
26/12:30am 19.5 20.9 16.5 83 1.8 NE 4 6 2 3 998.3 998.3 0.0
26/12:00am 19.2 20.5 16.1 82 1.9 NE 4 6 2 3 999.2 999.2 0.0
 
Date/Time
EDT
Temp
°C
App
Temp
°C
Dew
Point
°C
Rel
Hum
%
Delta-T
°C
Wind Press
QNH
hPa
Press
MSL
hPa
Rain since
9am
mm
Dir  Spd
km/h
Gust
km/h
Spd
kts
Gust
kts
25/11:30pm 19.5 20.8 16.2 81 2.0 E 4 6 2 3 999.2 999.2 0.0
25/11:00pm 19.4 20.9 15.7 79 2.2 SE 2 6 1 3 999.5 999.5 0.0
25/10:30pm 19.8 20.6 15.9 78 2.3 WSW 6 9 3 5 1000.0 1000.0 0.0
25/10:00pm 19.8 20.4 15.9 78 2.3 SSW 7 13 4 7 999.9 999.9 0.0
25/09:30pm 20.4 20.3 16.0 76 2.6 SW 11 17 6 9 1001.1 1001.1 0.0
25/09:00pm 19.8 19.1 16.4 81 2.1 SW 15 22 8 12 1000.3 1000.3 0.0
25/08:30pm 19.4 19.5 16.4 83 1.8 SW 11 17 6 9 999.3 999.3 0.0
25/08:00pm 19.6 20.0 16.3 81 2.0 SSW 9 13 5 7 998.7 998.7 0.0
25/07:30pm 19.9 19.9 16.2 79 2.2 SSW 11 17 6 9 998.8 998.8 0.0
25/07:00pm 20.5 19.2 15.9 75 2.8 SSW 17 26 9 14 998.7 998.7 0.0
25/06:30pm 21.1 20.2 15.9 72 3.1 SW 15 24 8 13 999.0 999.0 0.0
25/06:00pm 20.9 19.9 15.7 72 3.1 SSW 15 24 8 13 998.6 998.6 0.0
25/05:30pm 22.2 20.4 15.5 66 4.0 SSW 19 35 10 19 998.9 998.9 0.0
25/05:00pm 23.7 20.6 15.5 60 5.0 SW 26 44 14 24 999.5 999.5 0.0

Other formats

Comma delimited format used in spreadsheet applications
http://www.bom.gov.au/fwo/IDV60801/IDV60801.94898.axf

JavaScript Object Notation format (JSON) in row-major order
http://www.bom.gov.au/fwo/IDV60801/IDV60801.94898.json

Data quality

Most of these data are generated automatically and are frequently updated. Quality checks on data are not normally performed. It is possible for incorrect values to appear. Refer to information at About Latest Weather Observations and please check the disclaimer before using these data.